Startpagina
METAR-TAF:

METAR-TAF

Vliegvelden :

Internationale luchthaven Milano Malpensa

Milaan, Italië

breedte: 45-37N, lengte: 008-44E, hoogte: 234 m

Actueel weer

Dit bericht is 10 minuten geleden gemaakt, om 21:20 UTC
Wind 6 kt uit het noorden
Temperatuur 12°C
Vochtigheid 44%
Druk 1008 hPa
Zicht 10 km of meer
geen wolken onder 1500 m en geen cumulonimbus

METAR: LIMC 052120Z 01006KT CAVOK 12/M00 Q1008 NOSIG

Tijdstip: 23:30 (21:30 UTC)

Verwachting

Dit bericht is 4 uur en het 30 minuten geleden gemaakt, om 17:00 UTC
Verwachting geldig van 05 om 18 UTC tot 06 om 24 UTC
Wind 10 kt uit het noorden
Zicht 10 km of meer
geen wolken onder 1500 m en geen cumulonimbus
Wijzigt naar
van 05 om 21 UTC tot 05 om 23 UTC
Wind 5 kt uit variabele richting

TAF: LIMC 051700Z 0518/0624 36010KT CAVOK BECMG 0521/0523 VRB05KT

Waarnemingen en weersverwachtingen van meer dan 4000 vliegvelden (METAR en TAF).

De beschikbare stations zijn de gele en rode punten op de kaart.

Ga met uw muis naar het station om de naam te zien.

Klik dan om waarnemingen en weersverwachtingen te zien.

kaart wijzigen: klik op de groene knoppen met een zwart kruis om in te zoomen, op de groene knop met een streepje om uit te zoomen of op de groene pijlen voor aangrenzende kaarten.


METAR-TAF: